Gleason, Arkansas
Current Conditions -  °F | °C
As of 3:58 PM on Tuesday 21 Oct 2014 (Local Time) from KLRF Reporting Station
Clear Clear  
Wind Chill: 79°   Ceiling: Unl
Heat Index: 79°   Visibility: 10mi
Dew Point: 52°   Wind: 6mph
Humidity: 40%   Direction: 300°WNW
Pressure: 30.04"   Gusts: NA
Location:  35.0822°N, 92.366°W
Report Text: KLRF 212058Z AUTO 30005KT 10SM CLR 26/11 A3004 RMK AO2 SLP174 T02590113 56019
Loading
Personal Weather Stations






























Interactive Weather Map
Tropical Storm Tracking
New forecast layout! Learn more

10-Day Weather Forecast

Advertisements
Track Severe Weather on mobile